Time;durP1;ratioP1;P1;durP2;ratioP2;P2;SDS_P1;SDS_P2;PMS_P1;PMS_P2;Temp;Humidity;BMP_temperature;BMP_pressure;BME280_temperature;BME280_humidity;BME280_pressure;Samples;Min_cycle;Max_cycle;Signal;HPM_P1;HPM_P2
2023/01/17 00:01:43;;;;;;;3.38;1.35;;;3.10;99.90;;;;;;5067366;28;20701;-63
2023/01/17 00:10:06;;;;;;;1.52;1.42;;;2.90;99.90;;;;;;4998816;28;20530;-63
2023/01/17 00:12:33;;;;;;;3.15;1.10;;;3.00;99.90;;;;;;5036432;28;20064;-63
2023/01/17 00:14:59;;;;;;;1.80;1.10;;;2.90;99.90;;;;;;5055502;28;20027;-63
2023/01/17 00:17:26;;;;;;;1.92;1.08;;;2.90;99.90;;;;;;5057086;28;20025;-63
2023/01/17 01:35:12;;;;;;;1.77;1.20;;;2.70;99.90;;;;;;5061348;28;20305;-63
2023/01/17 01:37:38;;;;;;;1.63;0.77;;;2.80;99.90;;;;;;5057840;28;20037;-63
2023/01/17 01:40:04;;;;;;;3.30;0.90;;;2.70;99.90;;;;;;5060463;28;20062;-63
2023/01/17 01:42:30;;;;;;;0.70;0.60;;;2.70;99.90;;;;;;5059444;28;20037;-63
2023/01/17 01:44:55;;;;;;;0.80;0.80;;;2.70;99.90;;;;;;5061396;28;20508;-63
2023/01/17 01:47:36;;;;;;;4.90;1.10;;;2.70;99.90;;;;;;5066892;28;20576;-63
2023/01/17 01:50:06;;;;;;;1.23;1.02;;;2.70;99.90;;;;;;5060892;28;20127;-63
2023/01/17 01:52:35;;;;;;;2.38;1.30;;;2.70;99.90;;;;;;5066178;28;20060;-63
2023/01/17 01:55:09;;;;;;;4.32;1.05;;;2.70;99.90;;;;;;5066021;28;20024;-63
2023/01/17 01:57:39;;;;;;;3.17;1.13;;;2.70;99.90;;;;;;5064298;28;20120;-63
2023/01/17 02:00:20;;;;;;;5.13;1.35;;;2.60;99.90;;;;;;5066737;28;20033;-63
2023/01/17 02:02:48;;;;;;;1.92;0.75;;;2.60;99.90;;;;;;5064956;28;20051;-63
2023/01/17 02:05:16;;;;;;;2.47;0.90;;;2.70;99.90;;;;;;5063907;28;20028;-63
2023/01/17 02:08:01;;;;;;;1.27;0.63;;;2.60;99.90;;;;;;5063383;28;20032;-63
2023/01/17 02:10:27;;;;;;;2.25;1.05;;;2.60;99.90;;;;;;5065579;28;20379;-63
2023/01/17 02:12:54;;;;;;;2.00;1.02;;;2.60;99.90;;;;;;5070324;28;20040;-63
2023/01/17 02:15:28;;;;;;;2.85;1.00;;;2.60;99.90;;;;;;5063622;28;20028;-63
2023/01/17 02:18:14;;;;;;;3.40;1.10;;;2.60;99.90;;;;;;5062769;28;20676;-63
2023/01/17 02:21:17;;;;;;;1.00;0.70;;;2.60;99.90;;;;;;5059270;28;20065;-63
2023/01/17 02:24:17;;;;;;;1.27;0.88;;;2.60;99.90;;;;;;5060945;28;20107;-62
2023/01/17 02:26:54;;;;;;;1.15;0.63;;;2.60;99.90;;;;;;5059510;28;20442;-63
2023/01/17 02:29:43;;;;;;;5.90;1.00;;;2.50;99.90;;;;;;5047483;28;20139;-62
2023/01/17 02:32:44;;;;;;;4.47;0.90;;;2.50;99.90;;;;;;5065261;28;20123;-63
2023/01/17 02:35:19;;;;;;;1.85;1.00;;;2.50;99.90;;;;;;5063195;28;20037;-62
2023/01/17 02:38:02;;;;;;;6.53;1.65;;;2.50;99.90;;;;;;5062767;28;20016;-63
2023/01/17 02:40:34;;;;;;;1.00;0.50;;;2.50;99.90;;;;;;5063936;28;20347;-62
2023/01/17 02:43:04;;;;;;;2.15;0.50;;;2.60;99.90;;;;;;5063923;28;20021;-63
2023/01/17 02:45:30;;;;;;;4.55;0.82;;;2.50;99.90;;;;;;5065400;28;20025;-63
2023/01/17 02:47:55;;;;;;;1.63;0.60;;;2.60;99.90;;;;;;5067834;28;20074;-62
2023/01/17 02:50:25;;;;;;;3.50;1.17;;;2.60;99.90;;;;;;5065680;28;20043;-62
2023/01/17 02:53:09;;;;;;;2.25;1.13;;;2.50;99.90;;;;;;5065357;28;20036;-63
2023/01/17 02:55:47;;;;;;;1.67;0.70;;;2.60;99.90;;;;;;5062359;28;20036;-63
2023/01/17 02:58:27;;;;;;;4.00;0.93;;;2.50;99.90;;;;;;5063769;28;20549;-63
2023/01/17 03:01:22;;;;;;;3.70;1.13;;;2.50;99.90;;;;;;5061969;28;20071;-63
2023/01/17 03:03:59;;;;;;;2.03;0.90;;;2.50;99.90;;;;;;5064852;28;20082;-62
2023/01/17 03:06:40;;;;;;;3.42;0.88;;;2.50;99.90;;;;;;5066347;28;20028;-63
2023/01/17 03:09:07;;;;;;;4.45;1.73;;;2.50;99.90;;;;;;5064214;28;20031;-63
2023/01/17 03:11:33;;;;;;;5.38;2.05;;;2.40;99.90;;;;;;5063645;28;21373;-63
2023/01/17 03:13:58;;;;;;;3.70;2.55;;;2.20;99.90;;;;;;5056569;28;20048;-63
2023/01/17 03:16:26;;;;;;;4.57;2.30;;;2.10;99.90;;;;;;5066856;28;20385;-63
2023/01/17 03:18:55;;;;;;;4.80;2.90;;;2.00;99.90;;;;;;5067247;28;20025;-63
2023/01/17 03:21:22;;;;;;;6.18;3.13;;;1.90;99.90;;;;;;5055128;22;20050;-65
2023/01/17 03:23:47;;;;;;;3.80;2.47;;;1.90;99.90;;;;;;5025134;28;20039;-65
2023/01/17 03:26:13;;;;;;;7.97;3.17;;;1.80;99.90;;;;;;5023075;28;20060;-64
2023/01/17 03:28:38;;;;;;;9.20;3.75;;;1.80;99.90;;;;;;4998686;28;20034;-64
2023/01/17 03:31:04;;;;;;;5.43;2.97;;;1.80;99.90;;;;;;5019241;28;20663;-64
2023/01/17 03:33:30;;;;;;;8.77;3.65;;;1.80;99.90;;;;;;5018743;28;20037;-64
2023/01/17 03:35:57;;;;;;;9.82;3.50;;;1.90;99.90;;;;;;5021067;28;20033;-64
2023/01/17 03:38:27;;;;;;;10.45;4.22;;;1.80;99.90;;;;;;5019019;28;20112;-65
2023/01/17 03:40:53;;;;;;;7.85;4.28;;;1.90;99.90;;;;;;5013767;28;20025;-65
2023/01/17 03:43:19;;;;;;;9.98;3.47;;;1.90;99.90;;;;;;5009570;28;20057;-64
2023/01/17 03:45:48;;;;;;;10.65;3.63;;;1.90;99.90;;;;;;5018825;28;20033;-64
2023/01/17 03:48:14;;;;;;;9.75;3.28;;;1.90;99.90;;;;;;5018261;28;20048;-62
2023/01/17 03:50:39;;;;;;;11.43;3.42;;;1.90;99.90;;;;;;5020864;28;20029;-64
2023/01/17 03:53:05;;;;;;;7.55;3.75;;;1.90;99.90;;;;;;5017969;28;20040;-64
2023/01/17 03:55:30;;;;;;;12.57;3.97;;;1.90;99.90;;;;;;5019784;28;20508;-64
2023/01/17 03:57:56;;;;;;;6.80;4.18;;;2.00;99.90;;;;;;5019905;28;20037;-66
2023/01/17 04:00:22;;;;;;;12.98;3.97;;;2.00;99.90;;;;;;5021331;28;20025;-64
2023/01/17 04:02:47;;;;;;;8.65;3.50;;;2.00;99.90;;;;;;5025630;28;20499;-63
2023/01/17 04:05:13;;;;;;;7.75;3.42;;;2.00;99.90;;;;;;5042269;28;20039;-63
2023/01/17 04:07:39;;;;;;;11.32;3.42;;;2.00;99.90;;;;;;5022974;28;20038;-64
2023/01/17 04:10:06;;;;;;;12.10;2.95;;;2.10;99.90;;;;;;5024560;28;20037;-65
2023/01/17 04:12:31;;;;;;;8.00;2.70;;;2.10;99.90;;;;;;5024432;28;20112;-66
2023/01/17 04:14:57;;;;;;;5.13;2.83;;;2.10;99.90;;;;;;5022382;28;20164;-64
2023/01/17 04:17:23;;;;;;;5.18;2.10;;;2.10;99.90;;;;;;5017924;28;20029;-64
2023/01/17 04:19:49;;;;;;;8.82;2.83;;;2.10;99.90;;;;;;5021227;28;20497;-64
2023/01/17 04:22:15;;;;;;;4.85;2.47;;;2.10;99.90;;;;;;5022448;28;20033;-66
2023/01/17 04:24:40;;;;;;;7.20;2.63;;;2.10;99.90;;;;;;5023296;28;20106;-65
2023/01/17 04:27:06;;;;;;;6.22;2.88;;;2.10;99.90;;;;;;5024517;28;20029;-65
2023/01/17 04:29:31;;;;;;;8.82;3.35;;;2.00;99.90;;;;;;5000123;28;20049;-63
2023/01/17 04:31:57;;;;;;;12.73;3.30;;;2.00;99.90;;;;;;5024190;28;20026;-64
2023/01/17 04:34:23;;;;;;;4.65;2.65;;;2.00;99.90;;;;;;5025323;28;20028;-64
2023/01/17 04:36:48;;;;;;;22.83;5.75;;;1.90;99.90;;;;;;5026619;28;20542;-65
2023/01/17 04:39:14;;;;;;;21.02;9.80;;;1.90;99.90;;;;;;5022858;28;20039;-64
2023/01/17 04:41:39;;;;;;;16.73;7.70;;;1.80;99.90;;;;;;5025626;28;20372;-66
2023/01/17 04:44:05;;;;;;;7.97;4.28;;;1.70;99.90;;;;;;5020327;28;20108;-63
2023/01/17 04:46:31;;;;;;;16.17;6.05;;;1.70;99.90;;;;;;5018462;28;20051;-64
2023/01/17 04:48:57;;;;;;;22.95;7.75;;;1.70;99.90;;;;;;5027429;28;20057;-63
2023/01/17 04:51:23;;;;;;;8.65;4.60;;;1.70;99.90;;;;;;5024426;28;20021;-66
2023/01/17 04:53:49;;;;;;;8.43;4.53;;;1.70;99.90;;;;;;5025553;28;20136;-64
2023/01/17 04:56:14;;;;;;;9.85;3.08;;;1.70;99.90;;;;;;5025920;28;20028;-64
2023/01/17 04:58:40;;;;;;;7.65;4.10;;;1.70;99.90;;;;;;5020090;28;20033;-65
2023/01/17 05:01:07;;;;;;;9.05;3.80;;;1.60;99.90;;;;;;5040152;28;20022;-65
2023/01/17 05:03:33;;;;;;;7.25;3.05;;;1.70;99.90;;;;;;5020403;28;20037;-64
2023/01/17 05:05:59;;;;;;;4.43;2.67;;;1.70;99.90;;;;;;5017754;28;20029;-64
2023/01/17 05:08:25;;;;;;;9.70;4.07;;;1.70;99.90;;;;;;5020731;28;20025;-64
2023/01/17 05:10:51;;;;;;;12.10;3.83;;;1.70;99.90;;;;;;5024426;28;20033;-65
2023/01/17 05:13:17;;;;;;;12.10;3.05;;;1.70;99.90;;;;;;5019594;28;20026;-64
2023/01/17 05:15:43;;;;;;;5.88;3.13;;;1.70;99.90;;;;;;5020645;28;20021;-65
2023/01/17 05:18:14;;;;;;;6.78;3.45;;;1.70;99.90;;;;;;5024641;28;20025;-66
2023/01/17 05:20:40;;;;;;;13.57;3.78;;;1.70;99.90;;;;;;5025101;28;20060;-65
2023/01/17 05:23:07;;;;;;;5.85;3.85;;;1.80;99.90;;;;;;5017707;28;20158;-64
2023/01/17 05:25:33;;;;;;;6.00;3.35;;;1.80;99.90;;;;;;5018553;28;20507;-63
2023/01/17 05:27:59;;;;;;;6.25;2.95;;;1.80;99.90;;;;;;5019098;28;20479;-66
2023/01/17 05:30:26;;;;;;;7.60;3.28;;;1.90;99.90;;;;;;4988333;28;20092;-61
2023/01/17 05:32:54;;;;;;;6.68;2.90;;;1.90;99.90;;;;;;5018526;28;20042;-64
2023/01/17 05:35:24;;;;;;;9.25;3.92;;;1.80;99.90;;;;;;5018495;28;20121;-65
2023/01/17 05:37:50;;;;;;;10.90;3.40;;;1.90;99.90;;;;;;5018147;28;20640;-65
2023/01/17 05:40:21;;;;;;;6.95;3.95;;;1.80;99.90;;;;;;5016533;28;20030;-64
2023/01/17 05:42:47;;;;;;;6.20;3.25;;;1.80;99.90;;;;;;5018711;28;20036;-61
2023/01/17 05:45:15;;;;;;;7.55;2.95;;;1.80;99.90;;;;;;5019568;28;20037;-64
2023/01/17 05:47:45;;;;;;;9.90;4.28;;;1.80;99.90;;;;;;5021963;28;20033;-64
2023/01/17 05:50:14;;;;;;;15.60;4.25;;;1.80;99.90;;;;;;5019793;28;20035;-66
2023/01/17 05:52:40;;;;;;;13.15;4.65;;;1.80;99.90;;;;;;5022674;28;20503;-65
2023/01/17 05:55:06;;;;;;;9.68;4.47;;;1.80;99.90;;;;;;5027137;28;20090;-65
2023/01/17 05:57:33;;;;;;;11.65;3.97;;;1.80;99.90;;;;;;5028476;28;20846;-64
2023/01/17 05:59:59;;;;;;;7.60;4.95;;;1.80;99.90;;;;;;5024068;28;20391;-64
2023/01/17 06:02:24;;;;;;;13.35;4.25;;;1.80;99.90;;;;;;5024433;28;20030;-64
2023/01/17 06:04:50;;;;;;;17.83;7.53;;;1.80;99.90;;;;;;5022756;28;20869;-65
2023/01/17 06:07:16;;;;;;;15.90;6.10;;;1.80;99.90;;;;;;5019373;28;20246;-65
2023/01/17 06:09:41;;;;;;;24.55;8.32;;;1.80;99.90;;;;;;5027546;28;20056;-64
2023/01/17 06:12:07;;;;;;;30.40;6.93;;;1.80;99.90;;;;;;5026491;28;20037;-63
2023/01/17 06:14:32;;;;;;;15.25;6.97;;;1.80;99.90;;;;;;5018262;28;20030;-65
2023/01/17 06:16:58;;;;;;;27.77;10.05;;;1.80;99.90;;;;;;5014906;28;20095;-64
2023/01/17 06:19:23;;;;;;;29.80;9.10;;;1.80;99.90;;;;;;5026270;28;20056;-64
2023/01/17 06:21:49;;;;;;;35.20;16.40;;;1.70;99.90;;;;;;5027684;28;20033;-67
2023/01/17 06:24:15;;;;;;;27.85;11.63;;;1.70;99.90;;;;;;5022897;28;20406;-64
2023/01/17 06:26:42;;;;;;;15.85;8.35;;;1.70;99.90;;;;;;5027648;28;20025;-66
2023/01/17 06:29:10;;;;;;;11.27;5.35;;;1.70;99.90;;;;;;5000285;28;20597;-64
2023/01/17 06:31:35;;;;;;;13.52;4.40;;;1.70;99.90;;;;;;5023229;28;20033;-65
2023/01/17 06:34:02;;;;;;;8.75;3.67;;;1.70;99.90;;;;;;5026246;28;20022;-64
2023/01/17 06:36:28;;;;;;;8.10;5.28;;;1.60;99.90;;;;;;5021911;28;20399;-64
2023/01/17 06:38:53;;;;;;;10.90;4.18;;;1.70;99.90;;;;;;5020460;28;20026;-66
2023/01/17 06:41:19;;;;;;;19.20;6.13;;;1.60;99.90;;;;;;5023632;28;20057;-64
2023/01/17 06:43:44;;;;;;;9.98;5.63;;;1.60;99.90;;;;;;5022861;28;20040;-64
2023/01/17 06:46:10;;;;;;;12.35;5.57;;;1.50;99.90;;;;;;5022910;28;20017;-65
2023/01/17 06:48:35;;;;;;;8.93;4.20;;;1.50;99.90;;;;;;5029265;28;20498;-64
2023/01/17 06:51:01;;;;;;;10.93;4.68;;;1.40;99.90;;;;;;5025714;28;20052;-65
2023/01/17 06:53:27;;;;;;;12.35;6.78;;;1.40;99.90;;;;;;5028493;28;20029;-67
2023/01/17 06:55:56;;;;;;;10.20;5.22;;;1.40;99.90;;;;;;5025154;28;20749;-66
2023/01/17 06:58:22;;;;;;;14.10;4.90;;;1.30;99.90;;;;;;5024588;28;20186;-64
2023/01/17 07:00:48;;;;;;;10.50;4.65;;;1.30;99.90;;;;;;5022038;28;20185;-66
2023/01/17 07:03:18;;;;;;;10.85;5.80;;;1.40;99.90;;;;;;5026209;28;20026;-63
2023/01/17 07:05:44;;;;;;;11.00;5.80;;;1.30;99.90;;;;;;5025305;28;20068;-64
2023/01/17 07:08:10;;;;;;;30.60;11.57;;;1.30;99.90;;;;;;5024252;28;20483;-65
2023/01/17 07:10:35;;;;;;;30.30;11.25;;;1.30;99.90;;;;;;5023592;28;20175;-64
2023/01/17 07:13:01;;;;;;;20.73;9.35;;;1.30;99.90;;;;;;5020715;28;20505;-64
2023/01/17 07:15:26;;;;;;;28.95;9.52;;;1.30;99.90;;;;;;5022765;28;20141;-64
2023/01/17 07:17:52;;;;;;;19.92;7.07;;;1.30;99.90;;;;;;5023574;28;20487;-65
2023/01/17 07:20:18;;;;;;;14.52;5.45;;;1.30;99.90;;;;;;5025288;28;20555;-65
2023/01/17 07:22:44;;;;;;;11.80;5.70;;;1.20;99.90;;;;;;5022319;28;20569;-66
2023/01/17 07:25:10;;;;;;;18.42;7.82;;;1.20;99.90;;;;;;5020522;28;20048;-63
2023/01/17 07:27:35;;;;;;;38.05;13.60;;;1.10;99.90;;;;;;5018429;28;20186;-65
2023/01/17 07:30:01;;;;;;;31.23;13.13;;;1.10;99.90;;;;;;5001484;28;20164;-65
2023/01/17 07:32:27;;;;;;;19.45;8.80;;;1.00;99.90;;;;;;5018603;28;20041;-65
2023/01/17 07:34:55;;;;;;;16.83;7.85;;;0.90;99.90;;;;;;5021106;28;20041;-66
2023/01/17 07:37:21;;;;;;;9.13;4.57;;;0.80;99.90;;;;;;5025799;28;20487;-65
2023/01/17 07:39:46;;;;;;;9.32;4.40;;;0.80;99.90;;;;;;5019531;28;20091;-66
2023/01/17 07:42:12;;;;;;;8.38;4.43;;;0.80;99.90;;;;;;5042063;28;20038;-64
2023/01/17 07:44:39;;;;;;;8.15;3.83;;;0.80;99.90;;;;;;5021796;28;20038;-66
2023/01/17 07:47:05;;;;;;;14.02;4.88;;;0.80;99.90;;;;;;5027549;28;20021;-65
2023/01/17 07:49:30;;;;;;;11.90;5.22;;;0.80;99.90;;;;;;5026463;28;20036;-64
2023/01/17 07:51:56;;;;;;;11.77;5.18;;;0.80;99.90;;;;;;5024930;28;20037;-66
2023/01/17 07:54:22;;;;;;;9.13;4.90;;;0.90;99.90;;;;;;5022059;28;20123;-64
2023/01/17 07:56:47;;;;;;;12.07;5.05;;;1.00;99.90;;;;;;5020955;28;20033;-64
2023/01/17 07:59:13;;;;;;;9.73;5.45;;;1.10;99.90;;;;;;5018566;28;20033;-63
2023/01/17 08:01:38;;;;;;;9.23;5.25;;;1.10;99.90;;;;;;5025526;28;20109;-65
2023/01/17 08:04:04;;;;;;;11.38;5.63;;;1.20;99.90;;;;;;5026664;28;20025;-66
2023/01/17 08:06:30;;;;;;;14.07;6.45;;;1.30;99.90;;;;;;5021213;28;20032;-64
2023/01/17 08:08:57;;;;;;;12.98;5.95;;;1.30;99.90;;;;;;5020556;28;20076;-64
2023/01/17 08:11:23;;;;;;;11.90;6.13;;;1.30;99.90;;;;;;5018593;28;20013;-64
2023/01/17 08:13:56;;;;;;;22.27;7.85;;;1.40;99.90;;;;;;5024402;28;20065;-64
2023/01/17 08:16:23;;;;;;;27.33;12.85;;;1.50;99.90;;;;;;5027245;28;20068;-64
2023/01/17 08:18:49;;;;;;;15.57;7.70;;;1.50;99.90;;;;;;5026055;28;20024;-64
2023/01/17 08:21:15;;;;;;;21.77;8.38;;;1.50;99.90;;;;;;5023386;28;20553;-63
2023/01/17 08:23:42;;;;;;;20.45;7.57;;;1.50;99.90;;;;;;5024813;28;20030;-65
2023/01/17 08:26:08;;;;;;;12.75;6.32;;;1.60;99.90;;;;;;5025885;28;20041;-64
2023/01/17 08:28:33;;;;;;;15.07;6.28;;;1.70;99.90;;;;;;5021558;28;20026;-66
2023/01/17 08:31:07;;;;;;;21.33;6.63;;;1.70;99.90;;;;;;4998449;28;20098;-64
2023/01/17 08:33:32;;;;;;;13.27;6.45;;;1.70;99.90;;;;;;5027061;28;20033;-65
2023/01/17 08:35:58;;;;;;;12.98;4.85;;;1.80;99.90;;;;;;5024510;28;20063;-65
2023/01/17 08:38:24;;;;;;;5.20;3.70;;;1.80;99.90;;;;;;5021057;28;20029;-66
2023/01/17 08:40:50;;;;;;;6.63;3.35;;;1.70;99.90;;;;;;5024204;28;20624;-65
2023/01/17 08:43:15;;;;;;;13.00;5.03;;;1.80;99.90;;;;;;5025050;28;20104;-64
2023/01/17 08:45:44;;;;;;;14.75;5.38;;;1.90;99.90;;;;;;5021067;28;20485;-64
2023/01/17 08:48:10;;;;;;;21.17;8.20;;;1.90;99.90;;;;;;5027099;28;20037;-65
2023/01/17 08:50:36;;;;;;;22.15;8.13;;;1.90;99.90;;;;;;5025472;28;20403;-65
2023/01/17 08:53:01;;;;;;;19.17;7.45;;;1.90;99.90;;;;;;5022836;28;20034;-66
2023/01/17 08:55:27;;;;;;;17.77;6.53;;;1.90;99.90;;;;;;5023211;28;20025;-65
2023/01/17 08:57:53;;;;;;;24.38;7.05;;;1.80;99.90;;;;;;5021461;28;20070;-66
2023/01/17 09:00:19;;;;;;;18.90;7.25;;;1.80;99.90;;;;;;5022520;28;20111;-64
2023/01/17 09:02:44;;;;;;;11.95;5.22;;;1.80;99.90;;;;;;5025838;28;20034;-64
2023/01/17 09:05:10;;;;;;;17.50;4.90;;;1.80;99.90;;;;;;5026390;28;20043;-64
2023/01/17 09:07:36;;;;;;;16.27;4.85;;;1.90;99.90;;;;;;5023340;28;20092;-65
2023/01/17 09:10:02;;;;;;;9.48;3.95;;;1.90;99.90;;;;;;5025689;28;20034;-66
2023/01/17 09:12:31;;;;;;;8.45;4.00;;;1.80;99.90;;;;;;5022503;28;20313;-65
2023/01/17 09:14:56;;;;;;;7.38;4.00;;;1.80;99.90;;;;;;5017399;28;20116;-66
2023/01/17 09:17:22;;;;;;;10.45;4.93;;;1.70;99.90;;;;;;5019940;28;20562;-66
2023/01/17 09:19:47;;;;;;;14.60;4.20;;;1.70;99.90;;;;;;5026042;28;20033;-64
2023/01/17 09:22:13;;;;;;;9.55;4.10;;;1.70;99.90;;;;;;5028476;28;20043;-63
2023/01/17 09:24:39;;;;;;;8.15;4.05;;;1.70;99.90;;;;;;5030056;28;20164;-64
2023/01/17 09:27:05;;;;;;;7.00;3.92;;;1.80;99.90;;;;;;5030386;28;20042;-65
2023/01/17 09:29:31;;;;;;;7.55;3.72;;;1.80;99.90;;;;;;5005743;28;20041;-64
2023/01/17 09:31:56;;;;;;;6.70;3.83;;;1.90;99.90;;;;;;5023945;28;20041;-65
2023/01/17 09:34:23;;;;;;;8.00;3.40;;;1.90;99.90;;;;;;5025618;28;20033;-63
2023/01/17 09:36:49;;;;;;;8.63;3.95;;;2.00;99.90;;;;;;5028761;28;20407;-65
2023/01/17 09:39:15;;;;;;;6.93;4.00;;;2.20;99.90;;;;;;5022007;28;20068;-66
2023/01/17 09:42:03;;;;;;;5.55;3.72;;;2.30;99.90;;;;;;5030192;28;20057;-64
2023/01/17 09:44:41;;;;;;;8.32;3.20;;;2.40;99.90;;;;;;5022844;28;20029;-63
2023/01/17 09:47:39;;;;;;;7.60;4.03;;;2.40;99.90;;;;;;5024241;28;20033;-63
2023/01/17 09:50:23;;;;;;;5.95;3.50;;;2.40;99.90;;;;;;5023260;28;20025;-64
2023/01/17 09:52:49;;;;;;;6.63;3.40;;;2.30;99.90;;;;;;5022273;28;20040;-64
2023/01/17 09:58:07;;;;;;;6.28;3.67;;;2.40;99.90;;;;;;5002415;28;20052;-63
2023/01/17 10:00:35;;;;;;;5.90;3.78;;;2.50;99.90;;;;;;5003202;28;20041;-63
2023/01/17 10:03:04;;;;;;;8.15;4.28;;;2.70;99.90;;;;;;5005953;28;20586;-62
2023/01/17 10:05:53;;;;;;;7.40;3.63;;;2.80;99.90;;;;;;5008398;28;20419;-63
2023/01/17 10:08:22;;;;;;;5.15;2.90;;;2.90;99.90;;;;;;5006354;28;20030;-63
2023/01/17 10:11:00;;;;;;;5.90;2.85;;;2.80;99.90;;;;;;5009036;28;20030;-65
2023/01/17 10:13:25;;;;;;;9.32;3.25;;;3.00;99.90;;;;;;5003971;28;20031;-63
2023/01/17 10:15:56;;;;;;;7.78;3.17;;;2.90;99.90;;;;;;5005681;28;20026;-62
2023/01/17 10:18:57;;;;;;;5.43;2.72;;;2.80;99.90;;;;;;5007961;28;20061;-65
2023/01/17 10:21:50;;;;;;;4.10;2.42;;;2.80;99.90;;;;;;5009385;28;20105;-65
2023/01/17 10:24:38;;;;;;;5.97;3.97;;;2.70;99.90;;;;;;4998510;28;20034;-65
2023/01/17 10:27:20;;;;;;;8.57;3.38;;;2.60;99.90;;;;;;5005831;28;20034;-65
2023/01/17 10:29:48;;;;;;;8.68;3.13;;;2.60;99.90;;;;;;4984313;28;20049;-65
2023/01/17 10:32:14;;;;;;;7.75;3.22;;;2.60;99.90;;;;;;5000640;28;20026;-64
2023/01/17 10:34:46;;;;;;;5.20;3.20;;;2.60;99.90;;;;;;5004335;28;20048;-63
2023/01/17 10:37:39;;;;;;;8.18;3.53;;;2.60;99.90;;;;;;5006064;28;20026;-64
2023/01/17 10:40:15;;;;;;;19.13;8.55;;;2.60;99.90;;;;;;5002738;28;20117;-64
2023/01/17 10:42:54;;;;;;;17.35;8.93;;;2.70;99.90;;;;;;5006277;28;20542;-64
2023/01/17 10:45:30;;;;;;;17.98;6.50;;;2.70;99.90;;;;;;5005556;28;20554;-64
2023/01/17 10:48:15;;;;;;;10.05;3.45;;;2.70;99.90;;;;;;5008902;28;20065;-65
2023/01/17 10:50:53;;;;;;;13.63;3.47;;;2.80;99.90;;;;;;5000818;28;20057;-65
2023/01/17 10:53:57;;;;;;;9.85;3.40;;;2.80;99.90;;;;;;5005716;28;20042;-65
2023/01/17 10:56:27;;;;;;;8.20;3.07;;;2.90;99.90;;;;;;5007401;28;20052;-65
2023/01/17 10:59:19;;;;;;;8.18;2.92;;;2.90;99.90;;;;;;5006360;28;20281;-65
2023/01/17 11:01:45;;;;;;;10.73;4.90;;;3.00;99.90;;;;;;4975675;28;20078;-65
2023/01/17 11:04:20;;;;;;;7.95;3.15;;;3.00;99.90;;;;;;5004384;28;20056;-65
2023/01/17 11:06:47;;;;;;;11.55;2.72;;;3.00;99.90;;;;;;5009590;28;20531;-65
2023/01/17 11:09:13;;;;;;;18.95;4.28;;;3.10;99.90;;;;;;5004228;28;20515;-65
2023/01/17 11:11:50;;;;;;;19.27;7.93;;;3.10;99.90;;;;;;5002403;28;20080;-65
2023/01/17 11:14:24;;;;;;;8.52;3.08;;;3.20;99.90;;;;;;5001695;28;20036;-65
2023/01/17 11:17:01;;;;;;;7.55;2.60;;;3.20;99.90;;;;;;5002216;28;20125;-65
2023/01/17 11:19:34;;;;;;;9.43;3.33;;;3.30;99.90;;;;;;5007002;28;20030;-63
2023/01/17 11:22:06;;;;;;;12.25;3.33;;;3.30;99.90;;;;;;5003841;28;20480;-62
2023/01/17 11:24:47;;;;;;;5.93;2.58;;;3.30;99.90;;;;;;5000477;28;20399;-65
2023/01/17 11:27:55;;;;;;;4.53;2.65;;;3.30;99.90;;;;;;5009020;28;20029;-65
2023/01/17 11:30:24;;;;;;;9.45;4.68;;;3.30;99.90;;;;;;4975199;28;20050;-65
2023/01/17 11:32:54;;;;;;;6.80;2.67;;;3.20;99.90;;;;;;4999098;28;20034;-65
2023/01/17 11:35:24;;;;;;;7.72;2.38;;;3.10;99.90;;;;;;5007505;28;20048;-65
2023/01/17 11:38:18;;;;;;;7.97;3.25;;;3.10;99.90;;;;;;5011617;28;20030;-65
2023/01/17 11:40:45;;;;;;;9.70;2.47;;;3.00;99.90;;;;;;5000325;28;20038;-63
2023/01/17 11:43:11;;;;;;;3.55;2.10;;;3.10;99.90;;;;;;5003672;28;20062;-63
2023/01/17 11:45:38;;;;;;;6.57;2.90;;;3.10;99.90;;;;;;5001604;28;20042;-64
2023/01/17 11:48:07;;;;;;;10.90;2.90;;;3.20;99.90;;;;;;5002828;28;20038;-64
2023/01/17 11:50:35;;;;;;;9.35;3.92;;;3.10;99.90;;;;;;5005361;28;20178;-65
2023/01/17 11:53:24;;;;;;;10.43;3.58;;;3.00;99.90;;;;;;5004033;28;20045;-65
2023/01/17 11:55:54;;;;;;;10.43;2.75;;;3.00;99.90;;;;;;5003351;28;20558;-65
2023/01/17 11:58:22;;;;;;;14.52;3.47;;;2.90;99.90;;;;;;5015877;28;20103;-64
2023/01/17 12:00:55;;;;;;;9.10;2.63;;;2.90;99.90;;;;;;5003109;28;20029;-65
2023/01/17 12:03:29;;;;;;;8.10;2.67;;;2.90;99.90;;;;;;4999397;28;20120;-65
2023/01/17 12:06:12;;;;;;;9.20;2.53;;;2.90;99.90;;;;;;5006451;28;20108;-65
2023/01/17 12:08:50;;;;;;;4.55;2.85;;;2.80;99.90;;;;;;5003820;28;20045;-64
2023/01/17 12:11:15;;;;;;;9.07;2.88;;;2.70;99.90;;;;;;5005570;28;20061;-64
2023/01/17 12:14:39;;;;;;;7.70;3.08;;;2.70;99.90;;;;;;5003158;28;20519;-64
2023/01/17 12:17:16;;;;;;;14.02;6.60;;;2.60;99.90;;;;;;4893863;28;20102;-64
2023/01/17 12:19:53;;;;;;;19.63;6.55;;;2.60;99.90;;;;;;5003854;28;20034;-64
2023/01/17 12:22:34;;;;;;;13.23;6.10;;;2.60;99.90;;;;;;5005364;28;20487;-65
2023/01/17 12:25:38;;;;;;;13.98;4.90;;;2.60;99.90;;;;;;5006433;28;20164;-65
2023/01/17 12:28:36;;;;;;;13.85;5.30;;;2.60;99.90;;;;;;5003381;28;20494;-65
2023/01/17 12:31:01;;;;;;;44.70;12.77;;;2.60;99.90;;;;;;4985556;28;20056;-63
2023/01/17 12:33:39;;;;;;;37.00;13.20;;;2.60;99.90;;;;;;5004821;28;20033;-64
2023/01/17 12:36:51;;;;;;;29.80;12.75;;;2.60;99.90;;;;;;4999184;28;20056;-65
2023/01/17 12:39:23;;;;;;;34.20;12.90;;;2.70;99.90;;;;;;5004469;28;20041;-65
2023/01/17 12:41:51;;;;;;;31.48;9.82;;;2.70;99.90;;;;;;5018747;28;20060;-64
2023/01/17 12:44:22;;;;;;;33.60;12.38;;;2.70;99.90;;;;;;5002110;28;20038;-61
2023/01/17 12:47:00;;;;;;;27.98;10.23;;;2.80;99.90;;;;;;5008134;28;20476;-64
2023/01/17 12:50:02;;;;;;;30.92;8.55;;;2.80;99.90;;;;;;5003417;28;20519;-63
2023/01/17 12:52:42;;;;;;;29.27;8.57;;;2.80;99.90;;;;;;4992389;28;20048;-64
2023/01/17 12:55:22;;;;;;;17.50;4.70;;;2.80;99.90;;;;;;4999831;28;20026;-63
2023/01/17 12:57:57;;;;;;;7.47;2.30;;;2.80;99.90;;;;;;5012151;28;20069;-64
2023/01/17 13:00:25;;;;;;;11.35;2.83;;;2.80;99.90;;;;;;5004785;28;20145;-64
2023/01/17 13:02:57;;;;;;;7.82;2.50;;;2.80;99.90;;;;;;5010612;28;20049;-64
2023/01/17 13:05:35;;;;;;;4.70;2.42;;;2.80;99.90;;;;;;5006785;28;20035;-64
2023/01/17 13:08:39;;;;;;;4.03;1.70;;;2.80;99.90;;;;;;5006443;28;20037;-64
2023/01/17 13:11:07;;;;;;;4.87;1.80;;;2.70;99.90;;;;;;5007425;28;20084;-64
2023/01/17 13:13:34;;;;;;;8.63;2.42;;;2.70;99.90;;;;;;5004247;28;20376;-63
2023/01/17 13:16:35;;;;;;;5.43;2.17;;;2.60;99.90;;;;;;5006272;28;20091;-65
2023/01/17 13:19:39;;;;;;;10.02;3.80;;;2.60;99.90;;;;;;5008370;28;20053;-65
2023/01/17 13:22:09;;;;;;;11.15;2.53;;;2.50;99.90;;;;;;4992285;28;20042;-65
2023/01/17 13:24:54;;;;;;;9.38;3.78;;;2.40;99.90;;;;;;5008378;28;20042;-65
2023/01/17 13:27:56;;;;;;;6.10;3.13;;;2.40;99.90;;;;;;5010604;28;20040;-65
2023/01/17 13:30:42;;;;;;;6.47;3.70;;;2.30;99.90;;;;;;4991718;28;20053;-65
2023/01/17 13:33:31;;;;;;;9.02;3.25;;;2.30;99.90;;;;;;5008414;28;20025;-64
2023/01/17 13:36:28;;;;;;;2.85;2.10;;;2.30;99.90;;;;;;5008103;28;20022;-64
2023/01/17 13:39:41;;;;;;;4.47;1.98;;;2.40;99.90;;;;;;5003060;28;20030;-64
2023/01/17 13:42:44;;;;;;;8.07;2.13;;;2.40;99.90;;;;;;4925373;29;20049;-64
2023/01/17 13:45:19;;;;;;;6.30;2.35;;;2.50;99.90;;;;;;4887606;29;20526;-63
2023/01/17 13:47:44;;;;;;;7.10;1.70;;;2.50;99.90;;;;;;4985633;28;20096;-64
2023/01/17 13:50:35;;;;;;;8.07;1.95;;;2.60;99.90;;;;;;5006363;28;20138;-64
2023/01/17 13:53:32;;;;;;;6.35;1.45;;;2.60;99.90;;;;;;5004025;28;20062;-64
2023/01/17 13:56:18;;;;;;;3.92;1.50;;;2.70;99.90;;;;;;5009119;28;20084;-64
2023/01/17 13:58:48;;;;;;;4.50;2.00;;;2.70;99.90;;;;;;4996080;28;20038;-64
2023/01/17 14:01:38;;;;;;;8.80;1.80;;;2.80;99.90;;;;;;5002759;28;20018;-64
2023/01/17 14:04:08;;;;;;;1.92;1.08;;;2.80;99.90;;;;;;4999070;28;20037;-64
2023/01/17 14:06:51;;;;;;;3.58;1.23;;;2.80;99.90;;;;;;5008652;28;20018;-64
2023/01/17 14:09:22;;;;;;;5.68;1.33;;;2.80;99.90;;;;;;5003503;28;20257;-64
2023/01/17 14:11:58;;;;;;;5.63;1.17;;;2.80;99.90;;;;;;5022899;28;20038;-64
2023/01/17 14:14:43;;;;;;;2.80;1.33;;;2.80;99.90;;;;;;5001310;28;20026;-64
2023/01/17 14:17:15;;;;;;;3.75;1.15;;;2.80;99.90;;;;;;5005520;28;20022;-64
2023/01/17 14:19:41;;;;;;;9.55;1.35;;;2.80;99.90;;;;;;5002712;28;20381;-60
2023/01/17 14:22:19;;;;;;;4.82;1.23;;;2.80;99.90;;;;;;5007923;28;20193;-63
2023/01/17 14:25:13;;;;;;;3.72;1.15;;;2.70;99.90;;;;;;5011049;28;20034;-64
2023/01/17 14:27:49;;;;;;;2.53;1.70;;;2.70;99.90;;;;;;5002164;28;20032;-64
2023/01/17 14:30:32;;;;;;;3.17;1.55;;;2.60;99.90;;;;;;4988144;28;20065;-64
2023/01/17 14:32:58;;;;;;;2.50;1.25;;;2.50;99.90;;;;;;5010977;28;20049;-65
2023/01/17 14:35:28;;;;;;;3.78;1.40;;;2.40;99.90;;;;;;5007213;28;20037;-65
2023/01/17 14:37:56;;;;;;;3.70;1.95;;;2.30;99.90;;;;;;5006564;28;20610;-65
2023/01/17 14:40:29;;;;;;;3.42;1.55;;;2.30;99.90;;;;;;5008983;28;20049;-65
2023/01/17 14:43:05;;;;;;;7.65;2.38;;;2.20;99.90;;;;;;5010217;28;20058;-64